createdAt,value
2022-08-21T00:02:02.567Z,31.33
2022-08-21T00:07:23.389Z,30.23
2022-08-21T00:12:28.427Z,30.20
2022-08-21T00:17:30.673Z,37.77
2022-08-21T00:22:51.609Z,30.83
2022-08-21T00:28:12.968Z,31.87
2022-08-21T00:33:15.363Z,33.33
2022-08-21T00:38:36.060Z,35.03
2022-08-21T00:43:40.591Z,38.40
2022-08-21T00:48:42.918Z,43.80
2022-08-21T00:53:51.756Z,42.53
2022-08-21T00:58:57.545Z,41.93
2022-08-21T01:04:18.398Z,41.23
2022-08-21T01:09:21.070Z,43.47
2022-08-21T01:14:23.836Z,46.90
2022-08-21T01:19:44.902Z,47.70
2022-08-21T01:24:47.044Z,41.50
2022-08-21T01:29:58.344Z,39.50
2022-08-21T01:35:00.626Z,40.63
2022-08-21T01:40:03.243Z,45.27
2022-08-21T01:45:25.261Z,44.63
2022-08-21T01:50:27.565Z,40.83
2022-08-21T01:55:29.808Z,39.47
2022-08-21T02:00:32.080Z,41.33
2022-08-21T02:05:34.407Z,39.40
2022-08-21T02:10:36.649Z,46.73
2022-08-21T02:15:38.856Z,44.40
2022-08-21T02:20:45.954Z,35.47
2022-08-21T02:25:48.203Z,44.10
2022-08-21T02:31:09.630Z,39.83
2022-08-21T02:36:13.034Z,41.90
2022-08-21T02:41:17.827Z,41.07
2022-08-21T02:46:21.928Z,41.73
2022-08-21T02:51:24.396Z,42.93
2022-08-21T02:56:26.625Z,40.77
2022-08-21T03:01:33.813Z,40.90
2022-08-21T03:06:36.120Z,46.97
2022-08-21T03:11:38.407Z,45.90
2022-08-21T03:16:40.672Z,40.83
2022-08-21T03:21:42.961Z,39.03
2022-08-21T03:27:03.798Z,41.17
2022-08-21T03:32:11.608Z,39.00
2022-08-21T03:37:33.438Z,38.83
2022-08-21T03:42:36.070Z,37.60
2022-08-21T03:48:00.715Z,33.80
2022-08-21T03:53:03.761Z,38.00
2022-08-21T03:58:16.793Z,36.80
2022-08-21T04:03:19.701Z,42.10
2022-08-21T04:08:22.028Z,36.70
2022-08-21T04:13:29.323Z,35.27
2022-08-21T04:18:31.596Z,36.13
2022-08-21T04:23:33.800Z,29.37
2022-08-21T04:28:36.048Z,32.23
2022-08-21T04:33:38.196Z,32.37
2022-08-21T04:38:44.698Z,38.00
2022-08-21T04:43:47.634Z,32.30
2022-08-21T04:48:50.054Z,37.07
2022-08-21T04:53:55.419Z,38.30
2022-08-21T04:58:59.441Z,28.13
2022-08-21T05:04:05.610Z,32.43
2022-08-21T05:09:08.095Z,30.43
2022-08-21T05:14:12.448Z,31.33
2022-08-21T05:19:15.095Z,33.50
2022-08-21T05:24:18.514Z,31.37
2022-08-21T05:29:21.408Z,31.27
2022-08-21T05:34:25.050Z,33.23
2022-08-21T05:39:27.236Z,33.77
2022-08-21T05:44:49.503Z,33.70
2022-08-21T05:49:51.701Z,37.73
2022-08-21T05:55:12.694Z,35.27
2022-08-21T06:00:15.613Z,37.47
2022-08-21T06:05:36.370Z,34.47
2022-08-21T06:10:39.971Z,36.00
2022-08-21T06:15:42.272Z,35.73
2022-08-21T06:21:03.596Z,39.13
2022-08-21T06:26:24.970Z,36.33
2022-08-21T06:31:28.927Z,33.03
2022-08-21T06:36:31.414Z,37.77
2022-08-21T06:41:39.226Z,38.50
2022-08-21T06:47:01.239Z,38.67
2022-08-21T06:52:04.715Z,33.53
2022-08-21T06:57:07.266Z,33.47
2022-08-21T07:02:09.605Z,32.10
2022-08-21T07:07:30.388Z,35.20
2022-08-21T07:12:32.884Z,34.42
2022-08-21T07:17:35.167Z,31.27
2022-08-21T07:22:38.113Z,36.20
2022-08-21T07:27:40.461Z,39.38
2022-08-21T07:32:42.720Z,32.60
2022-08-21T07:37:44.923Z,32.38
2022-08-21T07:42:51.226Z,40.95
2022-08-21T07:47:57.305Z,38.13
2022-08-21T07:53:00.132Z,36.42
2022-08-21T07:58:02.544Z,34.90
2022-08-21T08:03:04.904Z,37.88
2022-08-21T08:08:26.281Z,32.17
2022-08-21T08:13:28.626Z,30.52
2022-08-21T08:18:31.171Z,32.90
2022-08-21T08:23:33.799Z,26.98
2022-08-21T08:28:56.149Z,25.00
2022-08-21T08:33:58.391Z,32.22
2022-08-21T08:39:01.985Z,34.80
2022-08-21T08:44:08.399Z,29.70
2022-08-21T08:49:22.438Z,30.00
2022-08-21T08:54:50.065Z,31.52
2022-08-21T08:59:56.470Z,32.60
2022-08-21T09:05:02.012Z,26.52
2022-08-21T09:10:13.692Z,28.25
2022-08-21T09:15:38.938Z,25.88
2022-08-21T09:21:00.210Z,26.48
2022-08-21T09:26:08.603Z,27.35
2022-08-21T09:36:45.429Z,29.75
2022-08-21T09:42:09.441Z,27.17
2022-08-21T09:47:14.057Z,24.50
2022-08-21T09:52:23.011Z,25.17
2022-08-21T09:57:39.633Z,18.48
2022-08-21T10:03:21.429Z,18.35
2022-08-21T10:08:26.046Z,18.00
2022-08-21T10:13:59.332Z,18.65
2022-08-21T10:19:10.083Z,19.80
2022-08-21T10:24:31.109Z,16.88
2022-08-21T10:30:05.925Z,19.08
2022-08-21T10:35:14.008Z,16.90
2022-08-21T10:40:19.374Z,24.60
2022-08-21T10:46:12.749Z,22.40
2022-08-21T10:51:50.263Z,19.23
2022-08-21T10:56:59.973Z,18.27
2022-08-21T11:02:42.488Z,23.33
2022-08-21T11:08:07.771Z,21.27
2022-08-21T11:13:19.594Z,18.48
2022-08-21T11:18:54.709Z,19.17
2022-08-21T11:24:22.672Z,22.75
2022-08-21T11:29:45.742Z,19.23
2022-08-21T11:35:07.288Z,19.88
2022-08-21T11:40:18.733Z,13.38
2022-08-21T11:45:32.791Z,16.40
2022-08-21T11:50:37.885Z,15.00
2022-08-21T11:55:48.902Z,17.00
2022-08-21T12:01:08.802Z,14.57
2022-08-21T12:06:14.310Z,14.45
2022-08-21T12:11:30.826Z,10.75
2022-08-21T12:16:37.507Z,14.00
2022-08-21T12:21:58.500Z,20.05
2022-08-21T12:27:31.331Z,16.30
2022-08-21T12:32:43.848Z,18.45
2022-08-21T12:37:53.757Z,18.13
2022-08-21T12:42:59.506Z,18.08
2022-08-21T12:48:08.954Z,20.83
2022-08-21T12:53:20.949Z,15.20
2022-08-21T12:58:25.634Z,19.02
2022-08-21T13:03:28.831Z,21.73
2022-08-21T13:08:53.567Z,14.60
2022-08-21T13:13:59.115Z,14.07
2022-08-21T13:19:07.732Z,20.92
2022-08-21T13:24:42.197Z,17.42
2022-08-21T13:30:18.960Z,15.98
2022-08-21T13:36:14.058Z,16.63
2022-08-21T13:41:26.998Z,15.32
2022-08-21T13:46:49.639Z,16.10
2022-08-21T13:51:53.377Z,12.82
2022-08-21T13:57:34.750Z,24.13
2022-08-21T14:02:43.801Z,29.20
2022-08-21T14:07:53.536Z,45.92
2022-08-21T14:13:04.413Z,49.40
2022-08-21T14:18:18.618Z,44.95
2022-08-21T14:23:27.512Z,18.00
2022-08-21T14:28:33.852Z,13.35
2022-08-21T14:33:36.382Z,11.35
2022-08-21T14:38:42.837Z,11.40
2022-08-21T14:43:47.130Z,9.63
2022-08-21T14:48:50.289Z,8.52
2022-08-21T14:53:52.746Z,13.45
2022-08-21T14:58:59.826Z,11.90
2022-08-21T15:04:02.169Z,13.88
2022-08-21T15:09:06.400Z,13.38
2022-08-21T15:14:11.149Z,12.10
2022-08-21T15:19:13.519Z,6.85
2022-08-21T15:24:16.378Z,6.57
2022-08-21T15:29:22.599Z,9.35
2022-08-21T15:34:28.337Z,10.90
2022-08-21T15:39:31.541Z,9.57
2022-08-21T15:44:41.322Z,7.03
2022-08-21T15:49:46.403Z,5.85
2022-08-21T15:54:49.229Z,4.22
2022-08-21T16:00:11.557Z,7.05
2022-08-21T16:05:20.348Z,6.47
2022-08-21T16:10:28.086Z,9.30
2022-08-21T16:15:32.646Z,5.28
2022-08-21T16:20:35.098Z,10.82
2022-08-21T16:25:39.949Z,8.45
2022-08-21T16:30:45.016Z,10.63
2022-08-21T16:35:47.748Z,6.43
2022-08-21T16:40:50.388Z,13.50
2022-08-21T16:45:54.008Z,5.53
2022-08-21T16:50:57.549Z,4.10
2022-08-21T16:56:01.928Z,6.05
2022-08-21T17:01:07.076Z,6.35
2022-08-21T17:06:10.481Z,6.68
2022-08-21T17:11:37.077Z,3.83
2022-08-21T17:16:43.847Z,5.72
2022-08-21T17:21:46.419Z,5.15
2022-08-21T17:26:49.017Z,4.28
2022-08-21T17:31:51.465Z,7.53
2022-08-21T17:36:54.003Z,8.02
2022-08-21T17:41:58.013Z,6.93
2022-08-21T17:47:04.696Z,8.27
2022-08-21T17:52:07.894Z,12.80
2022-08-21T17:57:18.801Z,13.60
2022-08-21T18:02:22.262Z,12.75
2022-08-21T18:07:31.736Z,16.10
2022-08-21T18:12:35.763Z,19.13
2022-08-21T18:17:38.322Z,19.92
2022-08-21T18:22:40.667Z,18.08
2022-08-21T18:27:45.952Z,14.20
2022-08-21T18:32:51.229Z,15.07
2022-08-21T18:37:53.690Z,15.88
2022-08-21T18:42:56.217Z,14.15
2022-08-21T18:47:59.041Z,15.30
2022-08-21T18:53:01.784Z,13.35
2022-08-21T18:58:12.760Z,14.18
2022-08-21T19:03:23.656Z,13.15
2022-08-21T19:08:29.043Z,12.48
2022-08-21T19:13:32.855Z,14.18
2022-08-21T19:18:39.192Z,13.60
2022-08-21T19:23:44.331Z,15.65
2022-08-21T19:28:54.723Z,12.68
2022-08-21T19:34:05.046Z,11.15
2022-08-21T19:39:08.404Z,10.95
2022-08-21T19:44:15.656Z,11.02
2022-08-21T19:49:21.359Z,9.57
2022-08-21T19:59:37.560Z,6.55
2022-08-21T20:10:08.465Z,8.10
2022-08-21T20:15:23.069Z,6.65
2022-08-21T20:20:25.636Z,7.18
2022-08-21T20:25:34.563Z,10.47
2022-08-21T20:30:46.642Z,13.20
2022-08-21T20:35:50.419Z,12.88
2022-08-21T20:40:53.797Z,8.85
2022-08-21T20:45:57.492Z,9.00
2022-08-21T20:51:10.846Z,9.73
2022-08-21T20:56:21.210Z,5.80
2022-08-21T21:01:25.250Z,6.18
2022-08-21T21:06:29.017Z,22.85
2022-08-21T21:11:40.145Z,7.93
2022-08-21T21:16:56.432Z,9.05
2022-08-21T21:22:04.014Z,7.15
2022-08-21T21:27:14.111Z,13.13
2022-08-21T21:32:21.304Z,11.27
2022-08-21T21:37:42.992Z,11.10
2022-08-21T21:43:23.510Z,7.38
2022-08-21T21:48:53.574Z,6.35
2022-08-21T21:54:23.272Z,19.90
2022-08-21T21:59:43.539Z,14.30
2022-08-21T22:04:52.437Z,6.70
2022-08-21T22:10:05.927Z,8.52
2022-08-21T22:20:51.275Z,6.80
2022-08-21T22:25:56.423Z,6.30
2022-08-21T22:31:24.905Z,7.63
2022-08-21T22:36:30.824Z,14.30
2022-08-21T22:41:38.767Z,7.73
2022-08-21T22:46:50.040Z,6.87
2022-08-21T22:51:57.671Z,4.67
2022-08-21T22:57:03.677Z,7.37
2022-08-21T23:02:25.663Z,7.57
2022-08-21T23:07:34.856Z,5.83
2022-08-21T23:12:39.038Z,3.67
2022-08-21T23:18:01.343Z,6.20
2022-08-21T23:23:28.235Z,6.90
2022-08-21T23:28:49.141Z,6.40
2022-08-21T23:34:22.719Z,16.58
2022-08-21T23:39:43.273Z,17.23
2022-08-21T23:44:56.126Z,7.65
2022-08-21T23:50:27.307Z,8.05
2022-08-21T23:55:58.178Z,6.80
